Time;durP1;ratioP1;P1;durP2;ratioP2;P2;SDS_P1;SDS_P2;PMS_P1;PMS_P2;Temp;Humidity;BMP_temperature;BMP_pressure;BME280_temperature;BME280_humidity;BME280_pressure;Samples;Min_cycle;Max_cycle;Signal;HPM_P1;HPM_P2
2022/10/22 00:00:01;;;;;;;1.30;0.68;;;26.30;82.40;;;;;;5044739;28;20327;-73
2022/10/22 00:02:28;;;;;;;2.42;0.52;;;26.80;81.50;;;;;;5042392;28;20367;-72
2022/10/22 00:04:56;;;;;;;4.30;0.70;;;26.70;79.90;;;;;;5044384;28;20029;-72
2022/10/22 00:07:23;;;;;;;4.88;0.70;;;26.60;81.90;;;;;;5038772;28;20025;-73
2022/10/22 00:09:50;;;;;;;2.08;0.43;;;26.60;80.60;;;;;;5046994;28;20036;-73
2022/10/22 00:12:18;;;;;;;1.05;0.68;;;26.40;79.60;;;;;;5045198;28;20024;-74
2022/10/22 00:14:45;;;;;;;2.72;0.88;;;26.30;80.10;;;;;;5045783;28;20029;-71
2022/10/22 00:17:13;;;;;;;3.05;0.60;;;26.20;80.20;;;;;;5044990;28;20090;-71
2022/10/22 00:19:40;;;;;;;3.25;0.60;;;25.90;81.70;;;;;;5045477;28;20509;-72
2022/10/22 00:22:09;;;;;;;3.45;0.68;;;26.10;82.70;;;;;;5052628;28;20025;-72
2022/10/22 00:24:37;;;;;;;0.75;0.40;;;26.10;81.70;;;;;;5049963;28;20029;-72
2022/10/22 00:27:05;;;;;;;2.28;0.65;;;26.00;82.80;;;;;;5049035;28;20021;-72
2022/10/22 00:29:33;;;;;;;0.88;0.50;;;26.10;83.50;;;;;;5049364;28;20036;-71
2022/10/22 00:32:03;;;;;;;1.95;0.63;;;26.50;83.10;;;;;;5062284;28;20021;-75
2022/10/22 00:34:32;;;;;;;1.17;0.60;;;26.70;81.60;;;;;;5068628;28;20503;-74
2022/10/22 00:36:59;;;;;;;0.98;0.70;;;26.80;79.60;;;;;;5067694;28;20024;-73
2022/10/22 00:39:28;;;;;;;1.30;0.57;;;27.10;80.80;;;;;;5054319;28;20012;-72
2022/10/22 00:41:57;;;;;;;1.95;0.65;;;27.80;78.60;;;;;;5048559;28;20032;-72
2022/10/22 00:45:04;;;;;;;1.48;1.00;;;28.40;78.90;;;;;;5064647;28;20024;-72
2022/10/22 00:47:39;;;;;;;2.55;0.70;;;28.80;75.20;;;;;;5031507;28;20029;-75
2022/10/22 00:50:21;;;;;;;1.30;0.50;;;29.10;72.80;;;;;;5049555;28;20017;-75
2022/10/22 00:52:50;;;;;;;1.35;0.70;;;28.90;69.40;;;;;;5047977;28;20053;-70
2022/10/22 00:55:18;;;;;;;2.38;0.82;;;28.80;69.60;;;;;;5053223;28;20013;-70
2022/10/22 00:57:46;;;;;;;1.73;1.23;;;28.90;72.90;;;;;;5066648;28;20405;-69
2022/10/22 01:00:14;;;;;;;1.70;0.85;;;29.10;73.50;;;;;;5048641;28;20064;-70
2022/10/22 01:02:42;;;;;;;2.72;0.90;;;29.20;66.70;;;;;;5043388;28;20021;-73
2022/10/22 01:05:10;;;;;;;1.75;0.80;;;28.90;67.60;;;;;;5045789;28;20104;-68
2022/10/22 01:07:42;;;;;;;4.65;0.82;;;28.70;71.70;;;;;;5041915;28;20021;-69
2022/10/22 01:10:28;;;;;;;2.53;1.05;;;29.00;73.80;;;;;;5048618;28;20033;-70
2022/10/22 01:13:43;;;;;;;1.27;0.80;;;29.10;71.00;;;;;;5034321;28;20124;-70
2022/10/22 01:16:31;;;;;;;0.98;0.70;;;29.30;67.90;;;;;;5031890;28;20080;-70
2022/10/22 01:19:10;;;;;;;1.20;0.75;;;28.90;71.30;;;;;;5052920;28;20492;-70
2022/10/22 01:22:08;;;;;;;2.33;0.70;;;29.20;69.20;;;;;;5042338;28;20025;-70
2022/10/22 01:24:35;;;;;;;2.22;1.10;;;29.30;71.50;;;;;;5051636;28;20033;-70
2022/10/22 01:27:21;;;;;;;2.60;1.10;;;29.40;66.70;;;;;;5059128;28;20083;-67
2022/10/22 01:30:02;;;;;;;3.72;0.90;;;29.10;71.50;;;;;;5049904;28;20370;-63
2022/10/22 01:32:34;;;;;;;2.25;0.50;;;29.20;69.40;;;;;;5051212;28;20036;-63
2022/10/22 01:35:07;;;;;;;3.03;0.80;;;29.20;67.40;;;;;;5052967;28;20047;-63
2022/10/22 01:37:40;;;;;;;1.45;0.63;;;29.20;68.30;;;;;;5054419;28;20070;-63
2022/10/22 01:40:09;;;;;;;0.98;0.50;;;29.10;68.10;;;;;;5058734;28;20048;-62
2022/10/22 01:42:37;;;;;;;1.23;0.82;;;29.00;68.90;;;;;;5051442;28;20464;-63
2022/10/22 01:45:14;;;;;;;1.70;0.63;;;29.10;69.30;;;;;;5049339;28;20025;-63
2022/10/22 01:47:44;;;;;;;1.88;0.80;;;29.10;71.10;;;;;;5048294;28;20028;-63
2022/10/22 01:50:34;;;;;;;1.17;0.80;;;29.10;69.60;;;;;;5046500;28;20037;-62
2022/10/22 01:53:34;;;;;;;3.47;0.98;;;28.80;69.70;;;;;;5051519;28;20041;-64
2022/10/22 01:56:24;;;;;;;1.25;0.73;;;28.70;70.20;;;;;;5052954;28;20055;-64
2022/10/22 01:59:22;;;;;;;1.48;0.80;;;28.50;72.80;;;;;;5053386;28;20033;-64
2022/10/22 02:02:03;;;;;;;4.97;1.50;;;28.50;71.10;;;;;;5052693;28;20025;-64
2022/10/22 02:04:41;;;;;;;3.00;1.17;;;28.50;73.00;;;;;;5052743;28;20478;-64
2022/10/22 02:07:12;;;;;;;1.08;0.65;;;28.30;73.30;;;;;;5052633;28;20696;-64
2022/10/22 02:09:41;;;;;;;3.92;1.20;;;28.00;73.00;;;;;;5052636;28;20512;-65
2022/10/22 02:12:09;;;;;;;3.97;1.95;;;27.90;74.80;;;;;;5052537;28;20082;-65
2022/10/22 02:14:40;;;;;;;1.35;0.80;;;28.00;75.20;;;;;;5052577;28;20036;-64
2022/10/22 02:17:12;;;;;;;3.13;0.80;;;28.00;73.90;;;;;;5052336;28;20024;-64
2022/10/22 02:19:56;;;;;;;4.50;0.90;;;28.00;75.00;;;;;;5052509;28;20025;-64
2022/10/22 02:22:25;;;;;;;5.85;2.42;;;28.10;74.70;;;;;;5051600;28;20120;-63
2022/10/22 02:24:53;;;;;;;3.70;1.35;;;28.10;72.90;;;;;;5052900;28;20033;-63
2022/10/22 02:27:40;;;;;;;2.00;1.17;;;27.90;73.90;;;;;;5050952;28;20048;-65
2022/10/22 02:30:11;;;;;;;2.30;1.00;;;27.70;76.60;;;;;;5052008;28;20482;-65
2022/10/22 02:32:49;;;;;;;2.67;1.20;;;27.40;76.10;;;;;;5052105;28;20167;-65
2022/10/22 02:35:21;;;;;;;5.43;1.60;;;27.20;76.40;;;;;;5050935;28;20013;-65
2022/10/22 02:37:50;;;;;;;4.25;1.55;;;27.10;77.20;;;;;;5051903;28;20024;-65
2022/10/22 02:40:18;;;;;;;3.85;1.40;;;27.00;78.30;;;;;;5052144;28;20431;-65
2022/10/22 02:42:48;;;;;;;4.78;1.08;;;26.90;79.00;;;;;;5052055;28;20733;-66
2022/10/22 02:45:17;;;;;;;6.47;1.30;;;26.90;80.60;;;;;;5051794;28;20454;-66
2022/10/22 02:47:45;;;;;;;4.88;1.45;;;26.60;81.40;;;;;;5051999;28;20025;-65
2022/10/22 02:50:13;;;;;;;14.05;2.00;;;26.30;87.50;;;;;;5051581;28;20032;-65
2022/10/22 02:52:41;;;;;;;16.83;2.20;;;25.90;90.90;;;;;;5050197;28;20056;-66
2022/10/22 02:55:08;;;;;;;5.85;2.33;;;25.10;95.40;;;;;;5052006;28;20494;-65
2022/10/22 02:57:36;;;;;;;2.58;1.13;;;24.30;99.90;;;;;;5051949;28;20151;-64
2022/10/22 03:00:05;;;;;;;4.47;1.30;;;23.60;99.90;;;;;;5050179;28;20031;-64
2022/10/22 03:02:33;;;;;;;3.42;1.10;;;23.10;99.90;;;;;;5051723;28;20021;-64
2022/10/22 03:05:00;;;;;;;4.05;1.70;;;22.70;99.90;;;;;;5050193;28;20017;-63
2022/10/22 03:07:27;;;;;;;9.50;2.80;;;22.30;99.90;;;;;;5050250;28;20033;-64
2022/10/22 03:09:55;;;;;;;8.70;2.83;;;22.10;99.90;;;;;;5052043;28;20536;-63
2022/10/22 03:12:22;;;;;;;10.32;2.15;;;21.90;99.90;;;;;;5051742;28;20067;-64
2022/10/22 03:14:49;;;;;;;7.15;1.98;;;21.70;99.90;;;;;;5049902;28;20033;-65
2022/10/22 03:17:17;;;;;;;3.35;1.40;;;21.60;99.90;;;;;;5051265;28;20020;-63
2022/10/22 03:19:44;;;;;;;2.80;1.20;;;21.50;99.90;;;;;;5051374;28;20067;-65
2022/10/22 03:22:18;;;;;;;2.65;1.20;;;21.40;99.90;;;;;;5051377;28;20020;-63
2022/10/22 03:24:47;;;;;;;;;;;21.50;99.90;;;;;;5051701;28;20474;-64
2022/10/22 03:27:18;;;;;;;1.45;1.00;;;21.60;99.90;;;;;;5051376;28;19909;-64
2022/10/22 03:29:45;;;;;;;1.35;0.80;;;21.70;99.90;;;;;;5050897;28;20075;-64
2022/10/22 03:32:13;;;;;;;2.65;0.70;;;22.00;99.90;;;;;;5049876;28;20028;-64
2022/10/22 03:34:40;;;;;;;2.88;1.10;;;22.30;99.90;;;;;;5050984;28;20108;-64
2022/10/22 03:37:08;;;;;;;1.98;1.10;;;22.60;99.90;;;;;;5049708;28;20068;-64
2022/10/22 03:39:37;;;;;;;2.75;1.17;;;23.00;99.90;;;;;;5049636;28;20021;-64
2022/10/22 03:42:06;;;;;;;3.75;1.08;;;23.50;99.90;;;;;;5050978;28;20106;-64
2022/10/22 03:44:35;;;;;;;1.95;1.08;;;23.90;99.90;;;;;;5050720;28;20470;-64
2022/10/22 03:47:02;;;;;;;2.15;0.98;;;24.10;99.90;;;;;;5050878;28;20477;-65
2022/10/22 03:49:30;;;;;;;3.67;1.50;;;24.40;99.90;;;;;;5050148;28;20020;-65
2022/10/22 03:51:57;;;;;;;1.67;0.88;;;24.60;99.90;;;;;;5051051;28;20040;-65
2022/10/22 03:54:24;;;;;;;2.78;1.10;;;24.90;99.90;;;;;;5051203;28;20068;-65
2022/10/22 03:56:51;;;;;;;1.55;0.90;;;25.10;99.90;;;;;;5049313;28;20115;-65
2022/10/22 03:59:19;;;;;;;7.57;1.20;;;25.30;99.90;;;;;;5050374;28;20032;-65
2022/10/22 04:01:46;;;;;;;3.92;1.38;;;25.50;99.90;;;;;;5050688;28;20056;-64
2022/10/22 04:04:14;;;;;;;4.55;1.05;;;25.70;99.90;;;;;;5049190;28;20017;-65
2022/10/22 04:06:41;;;;;;;2.63;1.10;;;26.00;99.90;;;;;;5050526;28;20028;-65
2022/10/22 04:09:08;;;;;;;3.10;1.00;;;26.40;98.50;;;;;;5050278;28;20071;-66
2022/10/22 04:11:36;;;;;;;3.67;1.20;;;26.70;95.00;;;;;;5050328;28;20021;-65
2022/10/22 04:14:03;;;;;;;2.42;1.27;;;27.00;96.10;;;;;;5050074;28;20037;-65
2022/10/22 04:16:33;;;;;;;4.85;1.17;;;27.30;95.70;;;;;;5050260;28;20021;-65
2022/10/22 04:19:10;;;;;;;2.13;1.23;;;27.40;93.90;;;;;;5050302;28;20021;-66
2022/10/22 04:21:37;;;;;;;5.32;1.02;;;27.50;93.70;;;;;;5048860;28;20100;-65
2022/10/22 04:24:05;;;;;;;4.00;1.30;;;27.60;93.10;;;;;;5050135;28;20029;-65
2022/10/22 04:26:32;;;;;;;2.10;1.10;;;27.80;91.90;;;;;;5047848;28;20083;-65
2022/10/22 04:28:59;;;;;;;1.60;0.90;;;28.10;91.30;;;;;;5050221;28;20024;-65
2022/10/22 04:31:27;;;;;;;4.18;1.23;;;28.20;89.40;;;;;;5050282;28;20021;-64
2022/10/22 04:33:57;;;;;;;2.83;1.33;;;28.20;90.40;;;;;;5050458;28;20090;-64
2022/10/22 04:36:28;;;;;;;2.65;1.10;;;28.00;87.20;;;;;;5050375;28;20028;-66
2022/10/22 04:38:58;;;;;;;3.63;1.20;;;27.70;88.80;;;;;;5048564;28;20486;-64
2022/10/22 04:41:37;;;;;;;1.80;1.20;;;27.50;87.70;;;;;;5050568;28;20021;-64
2022/10/22 04:44:06;;;;;;;2.47;1.05;;;27.40;87.20;;;;;;5049322;28;20486;-64
2022/10/22 04:46:37;;;;;;;4.70;1.63;;;27.30;86.40;;;;;;5045368;28;20047;-63
2022/10/22 04:49:04;;;;;;;6.10;1.80;;;27.50;85.80;;;;;;5041850;28;20481;-63
2022/10/22 04:51:32;;;;;;;6.85;2.15;;;27.50;82.30;;;;;;5047521;28;20029;-62
2022/10/22 04:54:00;;;;;;;5.65;1.70;;;27.60;80.90;;;;;;5046205;28;20058;-62
2022/10/22 04:56:29;;;;;;;4.80;2.42;;;27.60;80.80;;;;;;5036098;28;20090;-61
2022/10/22 04:58:59;;;;;;;5.75;1.00;;;27.50;79.60;;;;;;5069830;28;20051;-62
2022/10/22 05:01:33;;;;;;;3.30;1.38;;;27.40;78.90;;;;;;5038543;28;20557;-61
2022/10/22 05:04:02;;;;;;;2.35;1.30;;;27.30;80.70;;;;;;5055906;28;20025;-62
2022/10/22 05:06:30;;;;;;;4.18;1.25;;;27.20;80.70;;;;;;5043980;28;20869;-63
2022/10/22 05:09:11;;;;;;;1.98;1.23;;;27.10;81.30;;;;;;5042483;28;20024;-64
2022/10/22 05:11:40;;;;;;;1.50;1.08;;;27.10;79.70;;;;;;5047646;28;20032;-61
2022/10/22 05:14:09;;;;;;;1.52;0.77;;;27.00;81.20;;;;;;5056098;28;21111;-61
2022/10/22 05:16:40;;;;;;;1.45;0.98;;;27.00;81.80;;;;;;5041849;28;20025;-62
2022/10/22 05:19:11;;;;;;;3.35;0.93;;;27.00;81.80;;;;;;5042726;28;20033;-61
2022/10/22 05:21:41;;;;;;;4.45;1.10;;;27.10;78.90;;;;;;5047276;28;20025;-62
2022/10/22 05:24:12;;;;;;;2.13;1.13;;;27.20;79.30;;;;;;5034769;28;20526;-62
2022/10/22 05:26:39;;;;;;;3.97;1.30;;;27.10;80.50;;;;;;5045058;28;20039;-61
2022/10/22 05:29:06;;;;;;;3.53;1.30;;;27.10;77.20;;;;;;5045584;28;20024;-61
2022/10/22 05:31:34;;;;;;;3.30;1.65;;;27.00;78.00;;;;;;5047790;28;20021;-61
2022/10/22 05:34:01;;;;;;;2.30;0.80;;;27.00;80.10;;;;;;5046658;28;20037;-62
2022/10/22 05:36:29;;;;;;;2.30;1.13;;;27.00;76.60;;;;;;5047814;28;20021;-64
2022/10/22 05:39:00;;;;;;;2.58;1.02;;;27.10;77.70;;;;;;5048345;28;20020;-62
2022/10/22 05:41:32;;;;;;;2.78;0.90;;;27.20;76.50;;;;;;5048373;28;20026;-61
2022/10/22 05:44:00;;;;;;;4.75;1.95;;;27.20;74.50;;;;;;5049132;28;20428;-61
2022/10/22 05:46:29;;;;;;;1.42;0.98;;;27.10;72.80;;;;;;5049525;28;20087;-62
2022/10/22 05:48:59;;;;;;;1.33;0.75;;;26.90;74.50;;;;;;5049651;28;20068;-62
2022/10/22 05:51:29;;;;;;;1.98;1.08;;;26.80;74.50;;;;;;5048009;28;20032;-62
2022/10/22 05:54:02;;;;;;;1.60;0.98;;;26.70;76.10;;;;;;5049237;28;20047;-61
2022/10/22 05:56:33;;;;;;;3.17;1.42;;;26.60;77.10;;;;;;5049406;28;20029;-66
2022/10/22 05:59:00;;;;;;;3.63;1.30;;;26.70;80.20;;;;;;5048881;28;20496;-61
2022/10/22 06:01:31;;;;;;;3.13;0.98;;;26.80;77.80;;;;;;5049486;28;20397;-63
2022/10/22 06:04:07;;;;;;;5.85;1.20;;;26.80;76.30;;;;;;5047732;28;20040;-62
2022/10/22 06:07:00;;;;;;;9.13;1.58;;;26.80;86.90;;;;;;5048606;28;20025;-61
2022/10/22 06:09:36;;;;;;;8.00;1.63;;;26.60;90.20;;;;;;5048370;28;20041;-61
2022/10/22 06:12:07;;;;;;;9.02;1.90;;;26.30;91.10;;;;;;5048800;28;20021;-62
2022/10/22 06:14:35;;;;;;;12.88;1.90;;;26.10;92.00;;;;;;5052295;28;20040;-61
2022/10/22 06:17:10;;;;;;;7.35;2.38;;;25.90;92.50;;;;;;5052624;28;20025;-62
2022/10/22 06:19:38;;;;;;;7.20;1.70;;;25.50;93.60;;;;;;5051195;28;20124;-62
2022/10/22 06:22:05;;;;;;;11.68;2.00;;;25.30;93.30;;;;;;5054431;28;20087;-62
2022/10/22 06:24:33;;;;;;;14.27;1.95;;;25.20;93.90;;;;;;5062112;28;20373;-63
2022/10/22 06:27:00;;;;;;;7.72;1.98;;;25.00;94.10;;;;;;5059112;28;20063;-62
2022/10/22 06:29:33;;;;;;;9.38;2.33;;;24.80;94.40;;;;;;5052637;28;20024;-63
2022/10/22 06:32:01;;;;;;;8.75;1.92;;;24.80;95.10;;;;;;5055160;28;20064;-61
2022/10/22 06:34:28;;;;;;;9.02;1.90;;;24.80;94.90;;;;;;5051244;28;20048;-60
2022/10/22 06:36:55;;;;;;;8.57;2.67;;;24.80;95.20;;;;;;5058012;28;20052;-61
2022/10/22 06:39:23;;;;;;;11.00;1.90;;;24.80;94.80;;;;;;5050524;28;20032;-63
2022/10/22 06:41:53;;;;;;;6.13;1.30;;;24.80;94.80;;;;;;5052196;28;20021;-62
2022/10/22 06:44:20;;;;;;;8.98;1.67;;;24.80;94.80;;;;;;5051868;28;20055;-62
2022/10/22 06:46:51;;;;;;;9.35;2.05;;;24.80;95.30;;;;;;5067255;28;20029;-62
2022/10/22 06:49:19;;;;;;;12.80;1.95;;;24.80;95.50;;;;;;5051923;28;20039;-62
2022/10/22 06:51:51;;;;;;;7.38;1.80;;;24.70;94.90;;;;;;5051362;28;20037;-62
2022/10/22 06:54:18;;;;;;;13.38;2.55;;;24.60;95.10;;;;;;5050210;28;20041;-61
2022/10/22 06:56:45;;;;;;;8.57;2.40;;;24.50;95.30;;;;;;5051342;28;20096;-62
2022/10/22 06:59:13;;;;;;;16.27;4.25;;;24.50;95.60;;;;;;5051385;28;20442;-61
2022/10/22 07:01:41;;;;;;;13.25;2.20;;;24.30;95.70;;;;;;5051758;28;20378;-62
2022/10/22 07:04:09;;;;;;;9.23;2.55;;;24.20;95.70;;;;;;5051635;28;20033;-62
2022/10/22 07:06:37;;;;;;;6.95;2.22;;;24.10;96.20;;;;;;5049405;28;20094;-62
2022/10/22 07:09:04;;;;;;;11.85;2.30;;;24.10;96.70;;;;;;5050951;28;20025;-62
2022/10/22 07:11:41;;;;;;;8.00;2.05;;;24.00;96.80;;;;;;5051106;28;20049;-63
2022/10/22 07:14:09;;;;;;;14.60;2.70;;;23.90;96.80;;;;;;5049748;28;20090;-62
2022/10/22 07:16:36;;;;;;;10.13;1.83;;;23.90;97.20;;;;;;5051054;28;20025;-62
2022/10/22 07:19:04;;;;;;;12.98;2.00;;;23.70;97.60;;;;;;5050388;28;20032;-62
2022/10/22 07:21:32;;;;;;;11.23;1.98;;;23.60;98.10;;;;;;5049354;28;20367;-62
2022/10/22 07:23:59;;;;;;;8.13;2.03;;;23.60;98.50;;;;;;5050890;28;20120;-61
2022/10/22 07:26:29;;;;;;;7.57;2.35;;;23.50;98.70;;;;;;5051197;28;20036;-61
2022/10/22 07:28:57;;;;;;;11.50;2.25;;;23.40;99.20;;;;;;5051548;28;20028;-62
2022/10/22 07:32:00;;;;;;;7.88;1.70;;;23.40;99.40;;;;;;5051163;28;20060;-61
2022/10/22 07:34:27;;;;;;;10.23;2.72;;;23.30;99.50;;;;;;5051321;28;20539;-61
2022/10/22 07:36:56;;;;;;;6.95;2.33;;;23.20;99.80;;;;;;5049694;28;20106;-61
2022/10/22 07:39:24;;;;;;;12.93;2.00;;;23.20;99.80;;;;;;5049499;28;20053;-61
2022/10/22 07:41:52;;;;;;;8.00;2.22;;;23.20;99.90;;;;;;5050702;28;20120;-61
2022/10/22 07:44:19;;;;;;;6.90;1.25;;;23.00;99.90;;;;;;5050877;28;20029;-61
2022/10/22 07:46:46;;;;;;;8.07;1.85;;;23.00;99.90;;;;;;5050733;28;20082;-61
2022/10/22 07:49:14;;;;;;;12.82;2.10;;;22.90;99.90;;;;;;5049417;28;20021;-62
2022/10/22 07:51:41;;;;;;;11.00;2.05;;;22.80;99.90;;;;;;5050406;28;20075;-62
2022/10/22 07:54:08;;;;;;;10.15;1.73;;;22.80;99.90;;;;;;5050621;28;20069;-62
2022/10/22 07:56:35;;;;;;;7.32;1.85;;;22.70;99.90;;;;;;5050668;28;20021;-62
2022/10/22 07:59:03;;;;;;;8.85;2.53;;;22.60;99.90;;;;;;5048324;28;20441;-62
2022/10/22 08:01:30;;;;;;;8.13;2.25;;;22.60;99.90;;;;;;5051101;28;20017;-62
2022/10/22 08:03:57;;;;;;;7.03;1.65;;;22.50;99.90;;;;;;5050874;28;20032;-62
2022/10/22 08:06:24;;;;;;;9.82;1.67;;;22.50;99.90;;;;;;5049739;28;20021;-62
2022/10/22 08:08:51;;;;;;;5.60;1.67;;;22.40;99.90;;;;;;5050335;28;20029;-62
2022/10/22 08:11:19;;;;;;;10.05;3.03;;;22.40;99.90;;;;;;5048590;28;20044;-60
2022/10/22 08:13:46;;;;;;;5.00;1.95;;;22.30;99.90;;;;;;5048614;28;20041;-61
2022/10/22 08:16:14;;;;;;;6.00;1.95;;;22.20;99.90;;;;;;5049417;28;20025;-61
2022/10/22 08:18:41;;;;;;;11.05;2.78;;;22.20;99.90;;;;;;5048912;28;20025;-61
2022/10/22 08:21:08;;;;;;;9.48;2.35;;;22.20;99.90;;;;;;5043841;28;20450;-61
2022/10/22 08:23:35;;;;;;;9.07;2.22;;;22.20;99.90;;;;;;5044941;28;20382;-61
2022/10/22 08:26:03;;;;;;;10.52;2.10;;;22.20;99.90;;;;;;5045277;28;20025;-61
2022/10/22 08:28:34;;;;;;;12.32;2.05;;;22.10;99.90;;;;;;5033109;28;20021;-61
2022/10/22 08:31:06;;;;;;;7.38;1.80;;;22.10;99.90;;;;;;5047294;28;20031;-61
2022/10/22 08:33:33;;;;;;;6.35;1.55;;;22.10;99.90;;;;;;5046658;28;20051;-60
2022/10/22 08:36:01;;;;;;;8.55;1.58;;;22.10;99.90;;;;;;5047108;28;20066;-62
2022/10/22 08:38:30;;;;;;;6.47;2.60;;;22.10;99.90;;;;;;5047621;28;20098;-61
2022/10/22 08:41:15;;;;;;;8.68;2.13;;;22.00;99.90;;;;;;5047866;28;20429;-61
2022/10/22 08:44:06;;;;;;;9.20;1.75;;;22.00;99.90;;;;;;5045478;28;20025;-64
2022/10/22 08:46:52;;;;;;;8.23;1.92;;;22.00;99.90;;;;;;5046658;28;20044;-65
2022/10/22 08:49:29;;;;;;;6.32;2.10;;;22.00;99.90;;;;;;5045583;28;20029;-64
2022/10/22 08:52:00;;;;;;;12.50;1.95;;;21.90;99.90;;;;;;5047394;28;20045;-65
2022/10/22 08:54:57;;;;;;;9.88;2.10;;;21.90;99.90;;;;;;5046769;28;20124;-64
2022/10/22 08:57:38;;;;;;;6.10;1.85;;;21.90;99.90;;;;;;5027429;28;20032;-65
2022/10/22 09:00:23;;;;;;;5.55;1.88;;;21.90;99.90;;;;;;5028945;28;20028;-65
2022/10/22 09:03:14;;;;;;;6.25;1.48;;;21.80;99.90;;;;;;5046605;28;20496;-65
2022/10/22 09:06:03;;;;;;;7.03;1.58;;;21.80;99.90;;;;;;5046904;28;20029;-56
2022/10/22 09:08:30;;;;;;;6.18;1.65;;;21.70;99.90;;;;;;5046060;28;20037;-60
2022/10/22 09:11:22;;;;;;;4.78;1.70;;;21.70;99.90;;;;;;5047281;28;20063;-60
2022/10/22 09:13:52;;;;;;;5.88;1.38;;;21.60;99.90;;;;;;5046651;28;20037;-60
2022/10/22 09:16:35;;;;;;;7.57;1.67;;;21.60;99.90;;;;;;5047785;28;20025;-60
2022/10/22 09:19:35;;;;;;;3.58;1.35;;;21.60;99.90;;;;;;5046829;28;20036;-60
2022/10/22 09:22:09;;;;;;;8.32;1.77;;;21.50;99.90;;;;;;5045852;28;20025;-60
2022/10/22 09:24:47;;;;;;;4.75;1.10;;;21.40;99.90;;;;;;5044987;28;20025;-60
2022/10/22 09:27:20;;;;;;;3.67;0.98;;;21.40;99.90;;;;;;5046252;28;20100;-60
2022/10/22 09:29:48;;;;;;;7.43;1.58;;;21.40;99.90;;;;;;5044902;28;20463;-60
2022/10/22 09:32:17;;;;;;;4.88;1.27;;;21.40;99.90;;;;;;5046331;28;20024;-60
2022/10/22 09:34:46;;;;;;;5.55;1.00;;;21.40;99.90;;;;;;5046139;28;20041;-60
2022/10/22 09:37:18;;;;;;;3.83;1.30;;;21.30;99.90;;;;;;5046587;28;20056;-60
2022/10/22 09:39:47;;;;;;;6.28;1.67;;;21.20;99.90;;;;;;5045150;28;20060;-60
2022/10/22 09:42:17;;;;;;;4.82;1.30;;;21.20;99.90;;;;;;5046489;28;20120;-60
2022/10/22 09:44:54;;;;;;;4.95;1.40;;;21.10;99.90;;;;;;5044838;28;20410;-61
2022/10/22 09:47:30;;;;;;;5.68;1.50;;;21.00;99.90;;;;;;5029583;28;20490;-60
2022/10/22 09:50:26;;;;;;;6.57;2.05;;;21.00;99.90;;;;;;5049361;28;20029;-60
2022/10/22 09:53:25;;;;;;;2.97;1.30;;;21.00;99.90;;;;;;5050292;28;20041;-60
2022/10/22 09:55:55;;;;;;;5.53;1.17;;;20.90;99.90;;;;;;5046193;28;20106;-60
2022/10/22 09:58:23;;;;;;;5.32;1.17;;;20.90;99.90;;;;;;5050143;28;20502;-60
2022/10/22 10:00:59;;;;;;;5.85;1.00;;;20.80;99.90;;;;;;5050162;28;20033;-61
2022/10/22 10:03:32;;;;;;;4.47;1.60;;;20.80;99.90;;;;;;5050175;28;20434;-60
2022/10/22 10:06:01;;;;;;;1.90;1.08;;;20.70;99.90;;;;;;5049164;28;20757;-61
2022/10/22 10:08:29;;;;;;;4.13;1.00;;;20.70;99.90;;;;;;5046076;28;20034;-61
2022/10/22 10:11:30;;;;;;;5.50;1.23;;;20.60;99.90;;;;;;5028853;28;20059;-61
2022/10/22 10:14:41;;;;;;;5.80;1.17;;;20.60;99.90;;;;;;5036401;28;20045;-61
2022/10/22 10:17:33;;;;;;;4.22;1.40;;;20.60;99.90;;;;;;5029102;28;20056;-60
2022/10/22 10:20:25;;;;;;;6.65;1.33;;;20.50;99.90;;;;;;5049601;28;20139;-61
2022/10/22 10:23:07;;;;;;;3.78;1.25;;;20.40;99.90;;;;;;5049891;28;20668;-61
2022/10/22 10:25:56;;;;;;;4.55;1.73;;;20.40;99.90;;;;;;5047788;28;20175;-61
2022/10/22 10:28:46;;;;;;;4.47;1.50;;;20.40;99.90;;;;;;5049568;28;20401;-63
2022/10/22 10:31:20;;;;;;;3.13;1.40;;;20.40;99.90;;;;;;5049220;28;20028;-63
2022/10/22 10:34:06;;;;;;;6.07;1.13;;;20.40;99.90;;;;;;5046999;28;20052;-62
2022/10/22 10:36:58;;;;;;;7.57;2.03;;;20.30;99.90;;;;;;5049947;28;20502;-63
2022/10/22 10:39:37;;;;;;;7.10;1.27;;;20.40;99.90;;;;;;5048772;28;20021;-62
2022/10/22 10:42:36;;;;;;;7.30;1.88;;;20.30;99.90;;;;;;5047470;28;20036;-63
2022/10/22 10:45:03;;;;;;;5.53;1.45;;;20.30;99.90;;;;;;5049731;28;20562;-62
2022/10/22 10:47:55;;;;;;;6.35;1.60;;;20.20;99.90;;;;;;5048339;28;20056;-62
2022/10/22 10:50:39;;;;;;;6.10;1.00;;;20.30;99.90;;;;;;5049088;28;20390;-62
2022/10/22 10:53:31;;;;;;;6.80;1.35;;;20.20;99.90;;;;;;5049408;28;20068;-63
2022/10/22 10:55:58;;;;;;;3.92;1.50;;;20.20;99.90;;;;;;5049364;28;20029;-62
2022/10/22 10:58:45;;;;;;;4.35;1.58;;;20.20;99.90;;;;;;5048845;28;20421;-63
2022/10/22 11:01:41;;;;;;;10.23;2.03;;;20.20;99.90;;;;;;5048480;28;20100;-62
2022/10/22 11:04:17;;;;;;;5.22;1.15;;;20.20;99.90;;;;;;5049118;28;20028;-63
2022/10/22 11:06:45;;;;;;;6.00;1.48;;;20.10;99.90;;;;;;5044159;28;20036;-62
2022/10/22 11:09:27;;;;;;;5.32;1.10;;;20.10;99.90;;;;;;5060550;28;20375;-62
2022/10/22 11:11:56;;;;;;;4.55;1.13;;;20.10;99.90;;;;;;5030639;28;20499;-63
2022/10/22 11:14:38;;;;;;;4.25;1.08;;;20.10;99.90;;;;;;5046671;28;20566;-62
2022/10/22 11:17:10;;;;;;;5.90;2.25;;;20.10;99.90;;;;;;5047179;28;20065;-63
2022/10/22 11:19:37;;;;;;;4.60;1.73;;;20.10;99.90;;;;;;5047328;28;20028;-63
2022/10/22 11:22:22;;;;;;;4.57;1.80;;;20.10;99.90;;;;;;5045734;28;20029;-63
2022/10/22 11:25:13;;;;;;;5.68;1.75;;;20.10;99.90;;;;;;5045726;28;20021;-63
2022/10/22 11:27:57;;;;;;;17.55;1.88;;;20.10;99.90;;;;;;5048390;28;20025;-63
2022/10/22 11:30:26;;;;;;;3.77;2.20;;;20.00;99.90;;;;;;5048860;28;20021;-62
2022/10/22 11:33:01;;;;;;;6.55;1.38;;;20.00;99.90;;;;;;5048679;28;20121;-63
2022/10/22 11:35:35;;;;;;;3.88;1.20;;;20.00;99.90;;;;;;5047950;28;20037;-62
2022/10/22 11:38:04;;;;;;;4.32;1.17;;;20.00;99.90;;;;;;5047461;28;20037;-62
2022/10/22 11:40:43;;;;;;;3.15;1.00;;;20.00;99.90;;;;;;5048552;28;20033;-62
2022/10/22 11:43:25;;;;;;;4.68;1.20;;;19.90;99.90;;;;;;5048539;28;20021;-62
2022/10/22 11:46:07;;;;;;;3.35;1.00;;;20.00;99.90;;;;;;5046884;28;20029;-63
2022/10/22 11:48:38;;;;;;;8.38;1.30;;;19.90;99.90;;;;;;5048136;28;20042;-63
2022/10/22 11:51:43;;;;;;;4.75;1.10;;;19.90;99.90;;;;;;5047942;28;20033;-63
2022/10/22 11:54:41;;;;;;;4.10;1.20;;;19.80;99.90;;;;;;5047142;28;20103;-63
2022/10/22 11:57:36;;;;;;;7.60;1.20;;;19.80;99.90;;;;;;5048507;28;20033;-64
2022/10/22 12:00:31;;;;;;;2.45;0.93;;;19.80;99.90;;;;;;5048036;28;20077;-64
2022/10/22 12:03:23;;;;;;;3.30;0.70;;;19.80;99.90;;;;;;5036848;28;20120;-64
2022/10/22 12:06:11;;;;;;;4.63;1.17;;;19.80;99.90;;;;;;5048050;28;20031;-63
2022/10/22 12:08:53;;;;;;;2.75;0.90;;;19.90;99.90;;;;;;5047281;28;20109;-63
2022/10/22 12:11:39;;;;;;;5.88;1.25;;;19.90;99.90;;;;;;5047464;28;20021;-64
2022/10/22 12:14:23;;;;;;;5.03;1.52;;;19.80;99.90;;;;;;5047674;28;20037;-64
2022/10/22 12:17:07;;;;;;;3.03;1.00;;;19.80;99.90;;;;;;5047433;28;20021;-64
2022/10/22 12:19:42;;;;;;;5.03;1.35;;;19.70;99.90;;;;;;5027988;28;20029;-65
2022/10/22 12:22:31;;;;;;;4.65;1.15;;;19.70;99.90;;;;;;5027533;28;20491;-64
2022/10/22 12:25:01;;;;;;;4.68;1.10;;;19.70;99.90;;;;;;5027636;28;20413;-64
2022/10/22 12:27:38;;;;;;;3.38;0.90;;;19.60;99.90;;;;;;5046528;28;20029;-63
2022/10/22 12:30:26;;;;;;;4.63;1.58;;;19.60;99.90;;;;;;5047288;28;20025;-62
2022/10/22 12:33:01;;;;;;;4.97;0.90;;;19.50;99.90;;;;;;5046700;28;20670;-60
2022/10/22 12:35:43;;;;;;;7.72;2.47;;;19.50;99.90;;;;;;5042646;28;20060;-63
2022/10/22 12:38:20;;;;;;;4.80;1.02;;;19.40;99.90;;;;;;5047010;28;20088;-63
2022/10/22 12:40:49;;;;;;;4.75;1.20;;;19.40;99.90;;;;;;5048648;28;20017;-62
2022/10/22 12:43:29;;;;;;;3.67;1.00;;;19.40;99.90;;;;;;5048376;28;20032;-62
2022/10/22 12:45:58;;;;;;;4.80;1.02;;;19.30;99.90;;;;;;5049434;28;20107;-62
2022/10/22 12:48:35;;;;;;;2.95;1.05;;;19.30;99.90;;;;;;5049261;28;20086;-62
2022/10/22 12:51:06;;;;;;;4.78;1.00;;;19.30;99.90;;;;;;5049675;28;20032;-61
2022/10/22 12:53:42;;;;;;;5.22;1.30;;;19.30;99.90;;;;;;5049595;28;20052;-61
2022/10/22 12:56:17;;;;;;;4.50;1.00;;;19.20;99.90;;;;;;5049366;28;20025;-62
2022/10/22 12:59:00;;;;;;;5.03;1.13;;;19.20;99.90;;;;;;5048983;28;20230;-62
2022/10/22 13:01:33;;;;;;;;;;;19.10;99.90;;;;;;5047606;28;20128;-62
2022/10/22 13:04:12;;;;;;;5.22;1.10;;;19.10;99.90;;;;;;5048307;28;19939;-62
2022/10/22 13:06:45;;;;;;;5.55;1.02;;;19.00;99.90;;;;;;5048496;28;20039;-62
2022/10/22 13:09:22;;;;;;;3.05;0.90;;;19.00;99.90;;;;;;5048485;28;20017;-62
2022/10/22 13:12:00;;;;;;;8.98;1.38;;;19.00;99.90;;;;;;5048516;28;20032;-62
2022/10/22 13:14:30;;;;;;;4.68;1.10;;;19.00;99.90;;;;;;5048376;28;20136;-61
2022/10/22 13:17:08;;;;;;;7.47;1.58;;;19.00;99.90;;;;;;5048902;28;20036;-61
2022/10/22 13:19:53;;;;;;;3.38;1.35;;;19.00;99.90;;;;;;5048787;28;20055;-62